sensor_id;sensor_type;location;lat;lon;timestamp;P1;durP1;ratioP1;P2;durP2;ratioP2
1799;SDS011;919;48.274;12.292;2022-08-04T00:00:24;2.23;;;2.13;;
1799;SDS011;919;48.274;12.292;2022-08-04T00:02:56;2.10;;;1.90;;
1799;SDS011;919;48.274;12.292;2022-08-04T00:05:29;2.83;;;2.50;;
1799;SDS011;919;48.274;12.292;2022-08-04T00:08:05;2.17;;;2.07;;
1799;SDS011;919;48.274;12.292;2022-08-04T00:10:39;2.33;;;2.13;;
1799;SDS011;919;48.274;12.292;2022-08-04T00:13:13;1.70;;;1.60;;
1799;SDS011;919;48.274;12.292;2022-08-04T00:15:41;3.43;;;1.93;;
1799;SDS011;919;48.274;12.292;2022-08-04T00:18:09;2.10;;;2.00;;
1799;SDS011;919;48.274;12.292;2022-08-04T00:20:41;2.47;;;2.27;;
1799;SDS011;919;48.274;12.292;2022-08-04T00:23:08;3.27;;;2.20;;
1799;SDS011;919;48.274;12.292;2022-08-04T00:25:37;1.80;;;1.70;;
1799;SDS011;919;48.274;12.292;2022-08-04T00:28:06;1.43;;;1.33;;
1799;SDS011;919;48.274;12.292;2022-08-04T00:30:33;2.20;;;2.00;;
1799;SDS011;919;48.274;12.292;2022-08-04T00:32:59;2.57;;;2.37;;
1799;SDS011;919;48.274;12.292;2022-08-04T00:35:28;2.10;;;2.00;;
1799;SDS011;919;48.274;12.292;2022-08-04T00:37:54;2.40;;;2.20;;
1799;SDS011;919;48.274;12.292;2022-08-04T00:40:23;2.53;;;2.33;;
1799;SDS011;919;48.274;12.292;2022-08-04T00:43:02;2.43;;;2.10;;
1799;SDS011;919;48.274;12.292;2022-08-04T00:48:36;2.50;;;2.30;;
1799;SDS011;919;48.274;12.292;2022-08-04T00:51:14;2.70;;;1.70;;
1799;SDS011;919;48.274;12.292;2022-08-04T00:53:54;2.67;;;2.47;;
1799;SDS011;919;48.274;12.292;2022-08-04T00:56:36;2.00;;;1.80;;
1799;SDS011;919;48.274;12.292;2022-08-04T00:59:22;2.43;;;2.23;;
1799;SDS011;919;48.274;12.292;2022-08-04T01:02:04;5.33;;;2.43;;
1799;SDS011;919;48.274;12.292;2022-08-04T01:04:44;2.97;;;2.67;;
1799;SDS011;919;48.274;12.292;2022-08-04T01:07:25;2.53;;;2.33;;
1799;SDS011;919;48.274;12.292;2022-08-04T01:10:07;3.53;;;2.50;;
1799;SDS011;919;48.274;12.292;2022-08-04T01:12:43;2.87;;;2.47;;
1799;SDS011;919;48.274;12.292;2022-08-04T01:15:44;2.53;;;2.43;;
1799;SDS011;919;48.274;12.292;2022-08-04T01:18:21;2.70;;;2.50;;
1799;SDS011;919;48.274;12.292;2022-08-04T01:21:03;3.30;;;2.67;;
1799;SDS011;919;48.274;12.292;2022-08-04T01:23:55;2.53;;;2.30;;
1799;SDS011;919;48.274;12.292;2022-08-04T01:26:49;2.67;;;2.47;;
1799;SDS011;919;48.274;12.292;2022-08-04T01:29:21;3.30;;;2.10;;
1799;SDS011;919;48.274;12.292;2022-08-04T01:31:59;2.93;;;2.73;;
1799;SDS011;919;48.274;12.292;2022-08-04T01:34:28;2.33;;;2.20;;
1799;SDS011;919;48.274;12.292;2022-08-04T01:36:58;3.83;;;2.23;;
1799;SDS011;919;48.274;12.292;2022-08-04T01:39:29;4.27;;;2.60;;
1799;SDS011;919;48.274;12.292;2022-08-04T01:42:06;2.20;;;2.10;;
1799;SDS011;919;48.274;12.292;2022-08-04T01:44:35;2.17;;;2.00;;
1799;SDS011;919;48.274;12.292;2022-08-04T01:47:03;2.23;;;2.07;;
1799;SDS011;919;48.274;12.292;2022-08-04T01:49:32;8.83;;;2.80;;
1799;SDS011;919;48.274;12.292;2022-08-04T01:51:59;2.47;;;2.13;;
1799;SDS011;919;48.274;12.292;2022-08-04T01:54:27;2.30;;;2.07;;
1799;SDS011;919;48.274;12.292;2022-08-04T01:56:56;3.73;;;2.47;;
1799;SDS011;919;48.274;12.292;2022-08-04T01:59:25;2.70;;;1.90;;
1799;SDS011;919;48.274;12.292;2022-08-04T02:01:56;1.93;;;1.83;;
1799;SDS011;919;48.274;12.292;2022-08-04T02:04:22;2.00;;;1.90;;
1799;SDS011;919;48.274;12.292;2022-08-04T02:06:51;4.27;;;2.50;;
1799;SDS011;919;48.274;12.292;2022-08-04T02:09:29;2.00;;;1.90;;
1799;SDS011;919;48.274;12.292;2022-08-04T02:12:04;2.27;;;2.17;;
1799;SDS011;919;48.274;12.292;2022-08-04T02:14:37;2.27;;;2.07;;
1799;SDS011;919;48.274;12.292;2022-08-04T02:17:12;2.13;;;1.93;;
1799;SDS011;919;48.274;12.292;2022-08-04T02:19:45;2.00;;;1.90;;
1799;SDS011;919;48.274;12.292;2022-08-04T02:22:22;2.00;;;1.90;;
1799;SDS011;919;48.274;12.292;2022-08-04T02:24:54;2.30;;;2.20;;
1799;SDS011;919;48.274;12.292;2022-08-04T02:27:24;3.63;;;3.33;;
1799;SDS011;919;48.274;12.292;2022-08-04T02:29:55;2.40;;;2.20;;
1799;SDS011;919;48.274;12.292;2022-08-04T02:32:29;2.50;;;2.10;;
1799;SDS011;919;48.274;12.292;2022-08-04T02:35:03;1.70;;;1.60;;
1799;SDS011;919;48.274;12.292;2022-08-04T02:37:33;1.60;;;1.50;;
1799;SDS011;919;48.274;12.292;2022-08-04T02:40:01;2.20;;;2.00;;
1799;SDS011;919;48.274;12.292;2022-08-04T02:42:30;2.20;;;2.10;;
1799;SDS011;919;48.274;12.292;2022-08-04T02:44:58;2.20;;;2.00;;
1799;SDS011;919;48.274;12.292;2022-08-04T02:47:26;2.20;;;1.77;;
1799;SDS011;919;48.274;12.292;2022-08-04T02:49:55;2.97;;;2.77;;
1799;SDS011;919;48.274;12.292;2022-08-04T02:52:23;1.67;;;1.57;;
1799;SDS011;919;48.274;12.292;2022-08-04T02:54:52;2.10;;;1.90;;
1799;SDS011;919;48.274;12.292;2022-08-04T02:57:20;1.80;;;1.70;;
1799;SDS011;919;48.274;12.292;2022-08-04T02:59:53;2.10;;;1.83;;
1799;SDS011;919;48.274;12.292;2022-08-04T03:02:33;2.13;;;1.93;;
1799;SDS011;919;48.274;12.292;2022-08-04T03:05:15;2.67;;;2.30;;
1799;SDS011;919;48.274;12.292;2022-08-04T03:07:50;1.80;;;1.70;;
1799;SDS011;919;48.274;12.292;2022-08-04T03:10:51;2.13;;;2.03;;
1799;SDS011;919;48.274;12.292;2022-08-04T03:13:49;1.83;;;1.73;;
1799;SDS011;919;48.274;12.292;2022-08-04T03:19:44;2.00;;;1.90;;
1799;SDS011;919;48.274;12.292;2022-08-04T03:22:54;2.60;;;1.77;;
1799;SDS011;919;48.274;12.292;2022-08-04T03:28:37;2.37;;;2.17;;
1799;SDS011;919;48.274;12.292;2022-08-04T03:31:37;2.13;;;1.93;;
1799;SDS011;919;48.274;12.292;2022-08-04T03:34:23;2.40;;;2.20;;
1799;SDS011;919;48.274;12.292;2022-08-04T03:37:02;4.17;;;2.30;;
1799;SDS011;919;48.274;12.292;2022-08-04T03:39:55;3.30;;;2.40;;
1799;SDS011;919;48.274;12.292;2022-08-04T03:45:53;3.63;;;2.80;;
1799;SDS011;919;48.274;12.292;2022-08-04T03:51:37;2.20;;;2.00;;
1799;SDS011;919;48.274;12.292;2022-08-04T03:54:38;2.07;;;1.90;;
1799;SDS011;919;48.274;12.292;2022-08-04T03:57:35;3.40;;;2.57;;
1799;SDS011;919;48.274;12.292;2022-08-04T04:00:22;4.23;;;2.50;;
1799;SDS011;919;48.274;12.292;2022-08-04T04:05:59;2.70;;;1.63;;
1799;SDS011;919;48.274;12.292;2022-08-04T04:14:27;1.73;;;1.63;;
1799;SDS011;919;48.274;12.292;2022-08-04T04:17:18;2.10;;;2.00;;
1799;SDS011;919;48.274;12.292;2022-08-04T04:20:24;1.97;;;1.87;;
1799;SDS011;919;48.274;12.292;2022-08-04T04:23:05;4.23;;;2.40;;
1799;SDS011;919;48.274;12.292;2022-08-04T04:25:50;1.70;;;1.60;;
1799;SDS011;919;48.274;12.292;2022-08-04T04:28:37;2.17;;;2.07;;
1799;SDS011;919;48.274;12.292;2022-08-04T04:31:26;1.80;;;1.70;;
1799;SDS011;919;48.274;12.292;2022-08-04T04:34:04;2.10;;;2.00;;
1799;SDS011;919;48.274;12.292;2022-08-04T04:36:55;2.23;;;2.13;;
1799;SDS011;919;48.274;12.292;2022-08-04T04:39:35;2.63;;;2.43;;
1799;SDS011;919;48.274;12.292;2022-08-04T04:42:23;1.80;;;1.70;;
1799;SDS011;919;48.274;12.292;2022-08-04T04:45:02;1.90;;;1.80;;
1799;SDS011;919;48.274;12.292;2022-08-04T04:47:44;3.13;;;2.07;;
1799;SDS011;919;48.274;12.292;2022-08-04T04:50:19;2.33;;;2.07;;
1799;SDS011;919;48.274;12.292;2022-08-04T04:52:55;2.90;;;2.70;;
1799;SDS011;919;48.274;12.292;2022-08-04T04:55:29;2.93;;;2.73;;
1799;SDS011;919;48.274;12.292;2022-08-04T04:58:00;2.23;;;2.10;;
1799;SDS011;919;48.274;12.292;2022-08-04T05:00:30;2.03;;;1.93;;
1799;SDS011;919;48.274;12.292;2022-08-04T05:06:13;2.60;;;2.40;;
1799;SDS011;919;48.274;12.292;2022-08-04T05:09:06;2.90;;;2.70;;
1799;SDS011;919;48.274;12.292;2022-08-04T05:11:46;2.37;;;2.17;;
1799;SDS011;919;48.274;12.292;2022-08-04T05:14:28;3.20;;;2.90;;
1799;SDS011;919;48.274;12.292;2022-08-04T05:16:58;2.90;;;2.70;;
1799;SDS011;919;48.274;12.292;2022-08-04T05:19:32;2.80;;;2.60;;
1799;SDS011;919;48.274;12.292;2022-08-04T05:22:10;2.73;;;2.53;;
1799;SDS011;919;48.274;12.292;2022-08-04T05:24:44;3.13;;;2.93;;
1799;SDS011;919;48.274;12.292;2022-08-04T05:27:13;3.40;;;3.10;;
1799;SDS011;919;48.274;12.292;2022-08-04T05:29:45;3.97;;;3.67;;
1799;SDS011;919;48.274;12.292;2022-08-04T05:32:15;3.57;;;3.27;;
1799;SDS011;919;48.274;12.292;2022-08-04T05:34:51;3.87;;;3.57;;
1799;SDS011;919;48.274;12.292;2022-08-04T05:37:22;3.73;;;3.43;;
1799;SDS011;919;48.274;12.292;2022-08-04T05:39:52;6.53;;;4.37;;
1799;SDS011;919;48.274;12.292;2022-08-04T05:42:22;3.80;;;3.30;;
1799;SDS011;919;48.274;12.292;2022-08-04T05:44:50;3.20;;;3.00;;
1799;SDS011;919;48.274;12.292;2022-08-04T05:47:17;4.00;;;3.70;;
1799;SDS011;919;48.274;12.292;2022-08-04T05:49:45;4.20;;;3.90;;
1799;SDS011;919;48.274;12.292;2022-08-04T05:52:14;10.10;;;4.23;;
1799;SDS011;919;48.274;12.292;2022-08-04T05:54:42;3.43;;;3.23;;
1799;SDS011;919;48.274;12.292;2022-08-04T05:57:10;4.70;;;4.30;;
1799;SDS011;919;48.274;12.292;2022-08-04T05:59:38;5.20;;;4.80;;
1799;SDS011;919;48.274;12.292;2022-08-04T06:02:10;4.50;;;3.90;;
1799;SDS011;919;48.274;12.292;2022-08-04T06:04:40;3.70;;;3.40;;
1799;SDS011;919;48.274;12.292;2022-08-04T06:07:08;3.93;;;3.63;;
1799;SDS011;919;48.274;12.292;2022-08-04T06:09:36;3.60;;;3.40;;
1799;SDS011;919;48.274;12.292;2022-08-04T06:12:05;3.77;;;3.47;;
1799;SDS011;919;48.274;12.292;2022-08-04T06:14:35;4.20;;;3.90;;
1799;SDS011;919;48.274;12.292;2022-08-04T06:17:06;4.07;;;3.70;;
1799;SDS011;919;48.274;12.292;2022-08-04T06:19:34;3.93;;;3.63;;
1799;SDS011;919;48.274;12.292;2022-08-04T06:22:04;3.87;;;3.60;;
1799;SDS011;919;48.274;12.292;2022-08-04T06:24:33;6.00;;;5.50;;
1799;SDS011;919;48.274;12.292;2022-08-04T06:27:04;5.03;;;4.60;;
1799;SDS011;919;48.274;12.292;2022-08-04T06:29:32;5.50;;;5.00;;
1799;SDS011;919;48.274;12.292;2022-08-04T06:32:02;4.73;;;4.17;;
1799;SDS011;919;48.274;12.292;2022-08-04T06:34:37;5.03;;;4.60;;
1799;SDS011;919;48.274;12.292;2022-08-04T06:37:05;4.30;;;3.90;;
1799;SDS011;919;48.274;12.292;2022-08-04T06:39:33;4.67;;;4.27;;
1799;SDS011;919;48.274;12.292;2022-08-04T06:42:01;4.73;;;4.33;;
1799;SDS011;919;48.274;12.292;2022-08-04T06:44:30;5.00;;;4.60;;
1799;SDS011;919;48.274;12.292;2022-08-04T06:46:57;6.70;;;5.07;;
1799;SDS011;919;48.274;12.292;2022-08-04T06:49:25;5.10;;;4.70;;
1799;SDS011;919;48.274;12.292;2022-08-04T06:51:53;5.90;;;5.37;;
1799;SDS011;919;48.274;12.292;2022-08-04T06:54:22;5.20;;;4.80;;
1799;SDS011;919;48.274;12.292;2022-08-04T06:56:48;6.53;;;6.03;;
1799;SDS011;919;48.274;12.292;2022-08-04T06:59:19;4.47;;;4.07;;
1799;SDS011;919;48.274;12.292;2022-08-04T07:01:47;4.67;;;4.27;;
1799;SDS011;919;48.274;12.292;2022-08-04T07:04:15;5.13;;;4.63;;
1799;SDS011;919;48.274;12.292;2022-08-04T07:06:42;6.83;;;6.20;;
1799;SDS011;919;48.274;12.292;2022-08-04T07:09:08;4.43;;;4.13;;
1799;SDS011;919;48.274;12.292;2022-08-04T07:11:35;5.83;;;5.30;;
1799;SDS011;919;48.274;12.292;2022-08-04T07:14:03;4.93;;;4.53;;
1799;SDS011;919;48.274;12.292;2022-08-04T07:16:31;4.70;;;4.30;;
1799;SDS011;919;48.274;12.292;2022-08-04T07:19:00;4.90;;;4.50;;
1799;SDS011;919;48.274;12.292;2022-08-04T07:21:26;5.10;;;4.70;;
1799;SDS011;919;48.274;12.292;2022-08-04T07:23:53;4.83;;;4.47;;
1799;SDS011;919;48.274;12.292;2022-08-04T07:26:25;5.37;;;4.40;;
1799;SDS011;919;48.274;12.292;2022-08-04T07:28:52;5.10;;;4.70;;
1799;SDS011;919;48.274;12.292;2022-08-04T07:31:20;4.90;;;4.50;;
1799;SDS011;919;48.274;12.292;2022-08-04T07:33:50;5.50;;;5.00;;
1799;SDS011;919;48.274;12.292;2022-08-04T07:36:18;5.73;;;5.23;;
1799;SDS011;919;48.274;12.292;2022-08-04T07:38:45;4.60;;;4.10;;
1799;SDS011;919;48.274;12.292;2022-08-04T07:41:11;4.73;;;4.43;;
1799;SDS011;919;48.274;12.292;2022-08-04T07:43:39;4.77;;;4.37;;
1799;SDS011;919;48.274;12.292;2022-08-04T07:46:06;4.70;;;4.30;;
1799;SDS011;919;48.274;12.292;2022-08-04T07:48:35;4.43;;;4.13;;
1799;SDS011;919;48.274;12.292;2022-08-04T07:51:04;4.57;;;4.27;;
1799;SDS011;919;48.274;12.292;2022-08-04T07:53:31;4.80;;;4.40;;
1799;SDS011;919;48.274;12.292;2022-08-04T07:55:59;5.67;;;5.17;;
1799;SDS011;919;48.274;12.292;2022-08-04T07:58:27;5.30;;;4.80;;
1799;SDS011;919;48.274;12.292;2022-08-04T08:00:54;4.83;;;4.27;;
1799;SDS011;919;48.274;12.292;2022-08-04T08:03:21;4.30;;;3.97;;
1799;SDS011;919;48.274;12.292;2022-08-04T08:05:49;4.87;;;4.37;;
1799;SDS011;919;48.274;12.292;2022-08-04T08:08:17;5.43;;;4.93;;
1799;SDS011;919;48.274;12.292;2022-08-04T08:10:45;4.90;;;4.60;;
1799;SDS011;919;48.274;12.292;2022-08-04T08:13:13;4.77;;;4.30;;
1799;SDS011;919;48.274;12.292;2022-08-04T08:15:42;4.50;;;4.10;;
1799;SDS011;919;48.274;12.292;2022-08-04T08:18:10;4.67;;;4.27;;
1799;SDS011;919;48.274;12.292;2022-08-04T08:20:37;4.53;;;4.23;;
1799;SDS011;919;48.274;12.292;2022-08-04T08:23:04;5.30;;;4.90;;
1799;SDS011;919;48.274;12.292;2022-08-04T08:25:35;5.10;;;4.60;;
1799;SDS011;919;48.274;12.292;2022-08-04T08:28:02;6.80;;;4.83;;
1799;SDS011;919;48.274;12.292;2022-08-04T08:30:30;4.80;;;4.50;;
1799;SDS011;919;48.274;12.292;2022-08-04T08:32:59;4.80;;;4.50;;
1799;SDS011;919;48.274;12.292;2022-08-04T08:35:27;5.43;;;4.87;;
1799;SDS011;919;48.274;12.292;2022-08-04T08:38:20;5.40;;;5.00;;
1799;SDS011;919;48.274;12.292;2022-08-04T08:40:57;5.23;;;4.77;;
1799;SDS011;919;48.274;12.292;2022-08-04T08:43:44;4.30;;;4.00;;
1799;SDS011;919;48.274;12.292;2022-08-04T08:46:38;4.80;;;4.40;;
1799;SDS011;919;48.274;12.292;2022-08-04T08:49:23;4.20;;;4.00;;
1799;SDS011;919;48.274;12.292;2022-08-04T08:52:18;4.60;;;4.30;;
1799;SDS011;919;48.274;12.292;2022-08-04T08:55:06;5.40;;;4.90;;
1799;SDS011;919;48.274;12.292;2022-08-04T08:57:48;5.50;;;5.10;;
1799;SDS011;919;48.274;12.292;2022-08-04T09:00:27;4.83;;;4.43;;
1799;SDS011;919;48.274;12.292;2022-08-04T09:03:16;13.33;;;9.13;;
1799;SDS011;919;48.274;12.292;2022-08-04T09:06:12;4.50;;;4.20;;
1799;SDS011;919;48.274;12.292;2022-08-04T09:08:59;4.87;;;4.27;;
1799;SDS011;919;48.274;12.292;2022-08-04T09:11:37;6.33;;;3.77;;
1799;SDS011;919;48.274;12.292;2022-08-04T09:14:09;6.03;;;5.43;;
1799;SDS011;919;48.274;12.292;2022-08-04T09:16:46;4.90;;;4.50;;
1799;SDS011;919;48.274;12.292;2022-08-04T09:19:18;3.80;;;3.60;;
1799;SDS011;919;48.274;12.292;2022-08-04T09:21:54;4.20;;;3.90;;
1799;SDS011;919;48.274;12.292;2022-08-04T09:24:28;3.47;;;3.20;;
1799;SDS011;919;48.274;12.292;2022-08-04T09:27:02;4.20;;;3.90;;
1799;SDS011;919;48.274;12.292;2022-08-04T09:29:42;4.50;;;4.10;;
1799;SDS011;919;48.274;12.292;2022-08-04T09:32:16;4.67;;;4.37;;
1799;SDS011;919;48.274;12.292;2022-08-04T09:34:54;6.53;;;4.10;;
1799;SDS011;919;48.274;12.292;2022-08-04T09:37:33;4.17;;;3.80;;
1799;SDS011;919;48.274;12.292;2022-08-04T09:40:06;4.53;;;4.13;;
1799;SDS011;919;48.274;12.292;2022-08-04T09:42:44;4.83;;;4.10;;
1799;SDS011;919;48.274;12.292;2022-08-04T09:45:21;4.10;;;3.70;;
1799;SDS011;919;48.274;12.292;2022-08-04T09:48:04;4.17;;;3.87;;
1799;SDS011;919;48.274;12.292;2022-08-04T09:50:36;3.77;;;3.47;;
1799;SDS011;919;48.274;12.292;2022-08-04T09:53:12;5.00;;;3.50;;
1799;SDS011;919;48.274;12.292;2022-08-04T09:55:51;4.23;;;3.90;;
1799;SDS011;919;48.274;12.292;2022-08-04T09:58:35;3.90;;;3.60;;
1799;SDS011;919;48.274;12.292;2022-08-04T10:01:13;5.00;;;4.57;;
1799;SDS011;919;48.274;12.292;2022-08-04T10:03:44;5.53;;;3.57;;
1799;SDS011;919;48.274;12.292;2022-08-04T10:06:22;3.70;;;3.50;;
1799;SDS011;919;48.274;12.292;2022-08-04T10:12:20;4.33;;;4.03;;
1799;SDS011;919;48.274;12.292;2022-08-04T10:14:57;3.53;;;3.23;;
1799;SDS011;919;48.274;12.292;2022-08-04T10:17:36;4.43;;;3.73;;
1799;SDS011;919;48.274;12.292;2022-08-04T10:20:10;3.33;;;3.13;;
1799;SDS011;919;48.274;12.292;2022-08-04T10:22:46;4.07;;;3.73;;
1799;SDS011;919;48.274;12.292;2022-08-04T10:25:29;3.60;;;3.40;;
1799;SDS011;919;48.274;12.292;2022-08-04T10:28:08;3.40;;;3.20;;
1799;SDS011;919;48.274;12.292;2022-08-04T10:30:39;3.60;;;3.30;;
1799;SDS011;919;48.274;12.292;2022-08-04T10:33:10;3.23;;;3.03;;
1799;SDS011;919;48.274;12.292;2022-08-04T10:35:52;2.97;;;2.77;;
1799;SDS011;919;48.274;12.292;2022-08-04T10:38:29;2.90;;;2.70;;
1799;SDS011;919;48.274;12.292;2022-08-04T10:41:01;2.93;;;2.57;;
1799;SDS011;919;48.274;12.292;2022-08-04T10:43:40;2.67;;;2.47;;
1799;SDS011;919;48.274;12.292;2022-08-04T10:46:15;3.13;;;2.83;;
1799;SDS011;919;48.274;12.292;2022-08-04T10:48:48;3.30;;;3.10;;
1799;SDS011;919;48.274;12.292;2022-08-04T10:51:22;2.43;;;2.23;;
1799;SDS011;919;48.274;12.292;2022-08-04T10:53:56;2.57;;;2.37;;
1799;SDS011;919;48.274;12.292;2022-08-04T10:56:27;1.97;;;1.87;;
1799;SDS011;919;48.274;12.292;2022-08-04T10:59:01;2.50;;;2.30;;
1799;SDS011;919;48.274;12.292;2022-08-04T11:01:34;2.50;;;2.40;;
1799;SDS011;919;48.274;12.292;2022-08-04T11:04:07;2.20;;;2.10;;
1799;SDS011;919;48.274;12.292;2022-08-04T11:06:37;2.40;;;2.20;;
1799;SDS011;919;48.274;12.292;2022-08-04T11:09:05;2.37;;;2.23;;
1799;SDS011;919;48.274;12.292;2022-08-04T11:11:35;2.50;;;2.30;;
1799;SDS011;919;48.274;12.292;2022-08-04T11:14:06;2.10;;;2.00;;
1799;SDS011;919;48.274;12.292;2022-08-04T11:16:37;3.20;;;1.93;;
1799;SDS011;919;48.274;12.292;2022-08-04T11:19:12;1.90;;;1.80;;
1799;SDS011;919;48.274;12.292;2022-08-04T11:21:48;2.13;;;2.03;;
1799;SDS011;919;48.274;12.292;2022-08-04T11:24:21;1.70;;;1.60;;
1799;SDS011;919;48.274;12.292;2022-08-04T11:26:57;1.77;;;1.67;;
1799;SDS011;919;48.274;12.292;2022-08-04T11:29:28;2.13;;;2.03;;
1799;SDS011;919;48.274;12.292;2022-08-04T11:32:00;3.67;;;2.83;;
1799;SDS011;919;48.274;12.292;2022-08-04T11:34:32;2.33;;;2.20;;
1799;SDS011;919;48.274;12.292;2022-08-04T11:37:03;1.83;;;1.73;;
1799;SDS011;919;48.274;12.292;2022-08-04T11:39:37;2.03;;;1.93;;
1799;SDS011;919;48.274;12.292;2022-08-04T11:42:12;2.47;;;1.83;;
1799;SDS011;919;48.274;12.292;2022-08-04T11:44:46;2.07;;;1.97;;
1799;SDS011;919;48.274;12.292;2022-08-04T11:47:18;1.90;;;1.80;;
1799;SDS011;919;48.274;12.292;2022-08-04T11:49:53;2.00;;;1.83;;
1799;SDS011;919;48.274;12.292;2022-08-04T11:52:25;2.13;;;1.80;;
1799;SDS011;919;48.274;12.292;2022-08-04T11:54:54;2.50;;;2.30;;
1799;SDS011;919;48.274;12.292;2022-08-04T11:57:22;2.13;;;2.03;;
1799;SDS011;919;48.274;12.292;2022-08-04T11:59:50;2.20;;;2.10;;
1799;SDS011;919;48.274;12.292;2022-08-04T12:02:25;2.20;;;2.10;;
1799;SDS011;919;48.274;12.292;2022-08-04T12:05:10;2.40;;;2.03;;
1799;SDS011;919;48.274;12.292;2022-08-04T12:07:40;2.83;;;2.30;;
1799;SDS011;919;48.274;12.292;2022-08-04T12:10:17;2.37;;;2.23;;
1799;SDS011;919;48.274;12.292;2022-08-04T12:12:58;2.37;;;2.27;;
1799;SDS011;919;48.274;12.292;2022-08-04T12:15:34;2.23;;;2.13;;
1799;SDS011;919;48.274;12.292;2022-08-04T12:18:09;2.57;;;2.47;;
1799;SDS011;919;48.274;12.292;2022-08-04T12:20:47;3.97;;;2.50;;
1799;SDS011;919;48.274;12.292;2022-08-04T12:23:17;2.00;;;1.90;;
1799;SDS011;919;48.274;12.292;2022-08-04T12:25:48;2.60;;;2.40;;
1799;SDS011;919;48.274;12.292;2022-08-04T12:28:21;5.97;;;2.90;;
1799;SDS011;919;48.274;12.292;2022-08-04T12:30:54;2.60;;;2.50;;
1799;SDS011;919;48.274;12.292;2022-08-04T12:33:27;2.50;;;2.30;;
1799;SDS011;919;48.274;12.292;2022-08-04T12:36:04;2.67;;;2.47;;
1799;SDS011;919;48.274;12.292;2022-08-04T12:38:48;2.53;;;2.43;;
1799;SDS011;919;48.274;12.292;2022-08-04T12:41:26;2.63;;;2.43;;
1799;SDS011;919;48.274;12.292;2022-08-04T12:44:03;2.50;;;2.30;;
1799;SDS011;919;48.274;12.292;2022-08-04T12:46:32;2.47;;;2.27;;
1799;SDS011;919;48.274;12.292;2022-08-04T12:49:01;2.90;;;2.70;;
1799;SDS011;919;48.274;12.292;2022-08-04T12:51:35;3.00;;;2.50;;
1799;SDS011;919;48.274;12.292;2022-08-04T12:54:04;3.03;;;2.83;;
1799;SDS011;919;48.274;12.292;2022-08-04T12:56:33;3.03;;;2.83;;
1799;SDS011;919;48.274;12.292;2022-08-04T12:59:01;2.67;;;2.47;;
1799;SDS011;919;48.274;12.292;2022-08-04T13:01:30;3.30;;;3.00;;
1799;SDS011;919;48.274;12.292;2022-08-04T13:03:58;2.40;;;2.30;;
1799;SDS011;919;48.274;12.292;2022-08-04T13:06:28;2.30;;;2.20;;
1799;SDS011;919;48.274;12.292;2022-08-04T13:09:02;2.33;;;2.23;;
1799;SDS011;919;48.274;12.292;2022-08-04T13:11:33;2.90;;;2.70;;
1799;SDS011;919;48.274;12.292;2022-08-04T13:14:04;2.50;;;2.30;;
1799;SDS011;919;48.274;12.292;2022-08-04T13:16:32;2.77;;;2.57;;
1799;SDS011;919;48.274;12.292;2022-08-04T13:19:00;3.07;;;2.27;;
1799;SDS011;919;48.274;12.292;2022-08-04T13:21:27;2.57;;;2.47;;
1799;SDS011;919;48.274;12.292;2022-08-04T13:24:03;3.00;;;2.80;;
1799;SDS011;919;48.274;12.292;2022-08-04T13:26:35;2.53;;;1.97;;
1799;SDS011;919;48.274;12.292;2022-08-04T13:29:04;2.23;;;2.03;;
1799;SDS011;919;48.274;12.292;2022-08-04T13:31:33;1.80;;;1.70;;
1799;SDS011;919;48.274;12.292;2022-08-04T13:34:03;2.20;;;2.10;;
1799;SDS011;919;48.274;12.292;2022-08-04T13:36:31;2.13;;;2.03;;
1799;SDS011;919;48.274;12.292;2022-08-04T13:39:02;3.07;;;2.20;;
1799;SDS011;919;48.274;12.292;2022-08-04T13:41:34;2.50;;;2.30;;
1799;SDS011;919;48.274;12.292;2022-08-04T13:44:04;2.73;;;2.53;;
1799;SDS011;919;48.274;12.292;2022-08-04T13:46:37;2.30;;;2.20;;
1799;SDS011;919;48.274;12.292;2022-08-04T13:49:08;2.47;;;2.27;;
1799;SDS011;919;48.274;12.292;2022-08-04T13:51:36;2.27;;;2.07;;
1799;SDS011;919;48.274;12.292;2022-08-04T13:54:05;3.40;;;3.20;;
1799;SDS011;919;48.274;12.292;2022-08-04T13:56:34;2.00;;;1.90;;
1799;SDS011;919;48.274;12.292;2022-08-04T13:59:04;2.33;;;2.17;;
1799;SDS011;919;48.274;12.292;2022-08-04T14:01:35;3.70;;;3.40;;
1799;SDS011;919;48.274;12.292;2022-08-04T14:04:08;1.80;;;1.70;;
1799;SDS011;919;48.274;12.292;2022-08-04T14:06:43;5.23;;;1.97;;
1799;SDS011;919;48.274;12.292;2022-08-04T14:09:14;2.07;;;1.97;;
1799;SDS011;919;48.274;12.292;2022-08-04T14:11:46;2.30;;;2.20;;
1799;SDS011;919;48.274;12.292;2022-08-04T14:14:15;2.60;;;2.40;;
1799;SDS011;919;48.274;12.292;2022-08-04T14:16:55;1.87;;;1.70;;
1799;SDS011;919;48.274;12.292;2022-08-04T14:19:24;2.53;;;2.20;;
1799;SDS011;919;48.274;12.292;2022-08-04T14:21:51;2.03;;;1.93;;
1799;SDS011;919;48.274;12.292;2022-08-04T14:24:21;1.80;;;1.70;;
1799;SDS011;919;48.274;12.292;2022-08-04T14:26:50;2.13;;;1.93;;
1799;SDS011;919;48.274;12.292;2022-08-04T14:29:18;2.03;;;1.93;;
1799;SDS011;919;48.274;12.292;2022-08-04T14:31:48;2.20;;;2.00;;
1799;SDS011;919;48.274;12.292;2022-08-04T14:34:24;1.67;;;1.57;;
1799;SDS011;919;48.274;12.292;2022-08-04T14:36:52;2.03;;;1.90;;
1799;SDS011;919;48.274;12.292;2022-08-04T14:42:03;1.83;;;1.73;;
1799;SDS011;919;48.274;12.292;2022-08-04T14:44:31;1.73;;;1.63;;
1799;SDS011;919;48.274;12.292;2022-08-04T14:47:16;2.30;;;2.20;;
1799;SDS011;919;48.274;12.292;2022-08-04T14:49:52;2.40;;;2.30;;
1799;SDS011;919;48.274;12.292;2022-08-04T14:52:21;2.77;;;1.97;;
1799;SDS011;919;48.274;12.292;2022-08-04T14:54:49;2.70;;;2.50;;
1799;SDS011;919;48.274;12.292;2022-08-04T14:57:18;1.80;;;1.70;;
1799;SDS011;919;48.274;12.292;2022-08-04T14:59:46;1.80;;;1.70;;
1799;SDS011;919;48.274;12.292;2022-08-04T15:02:14;1.90;;;1.80;;
1799;SDS011;919;48.274;12.292;2022-08-04T15:04:42;3.07;;;2.03;;
1799;SDS011;919;48.274;12.292;2022-08-04T15:07:11;2.20;;;2.10;;
1799;SDS011;919;48.274;12.292;2022-08-04T15:09:38;2.03;;;1.93;;
1799;SDS011;919;48.274;12.292;2022-08-04T15:12:06;1.73;;;1.63;;
1799;SDS011;919;48.274;12.292;2022-08-04T15:14:34;2.37;;;2.20;;
1799;SDS011;919;48.274;12.292;2022-08-04T15:17:01;1.93;;;1.83;;
1799;SDS011;919;48.274;12.292;2022-08-04T15:19:28;2.00;;;1.83;;
1799;SDS011;919;48.274;12.292;2022-08-04T15:21:56;4.00;;;1.70;;
1799;SDS011;919;48.274;12.292;2022-08-04T15:24:24;2.53;;;1.87;;
1799;SDS011;919;48.274;12.292;2022-08-04T15:26:51;2.20;;;2.10;;
1799;SDS011;919;48.274;12.292;2022-08-04T15:29:22;1.90;;;1.80;;
1799;SDS011;919;48.274;12.292;2022-08-04T15:31:54;1.90;;;1.80;;
1799;SDS011;919;48.274;12.292;2022-08-04T15:34:22;1.90;;;1.80;;
1799;SDS011;919;48.274;12.292;2022-08-04T15:36:51;2.30;;;2.20;;
1799;SDS011;919;48.274;12.292;2022-08-04T15:39:24;2.10;;;2.00;;
1799;SDS011;919;48.274;12.292;2022-08-04T15:42:00;2.00;;;1.90;;
1799;SDS011;919;48.274;12.292;2022-08-04T15:44:44;2.10;;;2.00;;
1799;SDS011;919;48.274;12.292;2022-08-04T15:47:25;1.90;;;1.80;;
1799;SDS011;919;48.274;12.292;2022-08-04T15:50:01;2.53;;;2.27;;
1799;SDS011;919;48.274;12.292;2022-08-04T15:55:31;2.87;;;2.10;;
1799;SDS011;919;48.274;12.292;2022-08-04T15:57:59;2.07;;;1.97;;
1799;SDS011;919;48.274;12.292;2022-08-04T16:00:28;2.07;;;1.97;;
1799;SDS011;919;48.274;12.292;2022-08-04T16:09:06;2.17;;;2.07;;
1799;SDS011;919;48.274;12.292;2022-08-04T16:11:36;2.13;;;2.03;;
1799;SDS011;919;48.274;12.292;2022-08-04T16:14:08;2.93;;;2.10;;
1799;SDS011;919;48.274;12.292;2022-08-04T16:16:44;1.90;;;1.77;;
1799;SDS011;919;48.274;12.292;2022-08-04T16:19:16;1.93;;;1.83;;
1799;SDS011;919;48.274;12.292;2022-08-04T16:21:52;2.20;;;2.10;;
1799;SDS011;919;48.274;12.292;2022-08-04T16:24:20;1.90;;;1.80;;
1799;SDS011;919;48.274;12.292;2022-08-04T16:26:53;2.37;;;2.27;;
1799;SDS011;919;48.274;12.292;2022-08-04T16:32:10;1.93;;;1.83;;
1799;SDS011;919;48.274;12.292;2022-08-04T16:34:47;1.90;;;1.80;;
1799;SDS011;919;48.274;12.292;2022-08-04T16:37:18;1.83;;;1.73;;
1799;SDS011;919;48.274;12.292;2022-08-04T16:39:45;2.17;;;2.07;;